createdAt,value
2017-12-29T00:00:11.222Z,94.25
2017-12-29T00:02:38.745Z,94.33
2017-12-29T00:05:06.274Z,94.87
2017-12-29T00:07:33.812Z,95.66
2017-12-29T00:10:01.335Z,95.70
2017-12-29T00:12:28.860Z,95.28
2017-12-29T00:14:56.400Z,95.73
2017-12-29T00:17:23.930Z,94.71
2017-12-29T00:19:51.473Z,94.37
2017-12-29T00:22:19.003Z,94.39
2017-12-29T00:24:46.517Z,93.59
2017-12-29T00:27:14.041Z,93.72
2017-12-29T00:29:41.552Z,94.30
2017-12-29T00:32:09.081Z,93.92
2017-12-29T00:34:36.585Z,93.75
2017-12-29T00:37:04.141Z,94.52
2017-12-29T00:39:31.647Z,95.16
2017-12-29T00:41:59.175Z,94.51
2017-12-29T00:44:26.720Z,94.39
2017-12-29T00:46:54.279Z,93.54
2017-12-29T00:49:21.836Z,93.12
2017-12-29T00:51:49.356Z,92.40
2017-12-29T00:54:16.870Z,92.65
2017-12-29T00:56:44.410Z,91.87
2017-12-29T00:59:11.930Z,91.48
2017-12-29T01:01:39.449Z,90.48
2017-12-29T01:04:06.965Z,92.05
2017-12-29T01:06:34.480Z,91.74
2017-12-29T01:09:02.010Z,91.75
2017-12-29T01:11:29.511Z,92.33
2017-12-29T01:13:57.037Z,92.78
2017-12-29T01:16:24.570Z,91.85
2017-12-29T01:18:52.086Z,91.47
2017-12-29T01:21:19.595Z,92.31
2017-12-29T01:23:47.125Z,92.17
2017-12-29T01:26:14.666Z,91.15
2017-12-29T01:28:42.195Z,91.21
2017-12-29T01:31:09.731Z,91.30
2017-12-29T01:33:37.254Z,89.40
2017-12-29T01:36:04.789Z,89.36
2017-12-29T01:38:32.325Z,88.61
2017-12-29T01:40:59.850Z,87.88
2017-12-29T01:43:27.390Z,87.47
2017-12-29T01:45:54.916Z,86.11
2017-12-29T01:48:22.446Z,86.62
2017-12-29T01:50:49.977Z,87.02
2017-12-29T01:53:17.526Z,86.47
2017-12-29T01:55:45.040Z,87.44
2017-12-29T01:58:12.692Z,87.25
2017-12-29T02:00:40.370Z,88.01
2017-12-29T02:03:07.891Z,87.39
2017-12-29T02:05:35.391Z,88.59
2017-12-29T02:08:02.916Z,90.47
2017-12-29T02:10:30.445Z,89.26
2017-12-29T02:12:57.961Z,88.36
2017-12-29T02:15:25.477Z,89.11
2017-12-29T02:17:52.985Z,87.44
2017-12-29T02:20:20.499Z,87.37
2017-12-29T02:22:48.011Z,88.71
2017-12-29T02:25:15.551Z,86.02
2017-12-29T02:27:43.081Z,85.71
2017-12-29T02:30:10.601Z,87.01
2017-12-29T02:32:38.107Z,87.20
2017-12-29T02:35:05.608Z,88.11
2017-12-29T02:37:33.115Z,87.63
2017-12-29T02:40:00.770Z,89.57
2017-12-29T02:42:28.295Z,89.58
2017-12-29T02:44:56.847Z,89.34
2017-12-29T02:47:24.355Z,89.99
2017-12-29T02:49:51.885Z,88.75
2017-12-29T02:52:19.400Z,89.52
2017-12-29T02:54:46.915Z,89.93
2017-12-29T02:57:14.420Z,89.76
2017-12-29T02:59:42.008Z,90.11
2017-12-29T03:02:16.493Z,89.69
2017-12-29T03:04:44.002Z,90.77
2017-12-29T03:07:11.638Z,90.19
2017-12-29T03:09:39.199Z,90.07
2017-12-29T03:12:06.710Z,89.39
2017-12-29T03:14:34.216Z,90.72
2017-12-29T03:17:01.975Z,90.71
2017-12-29T03:19:29.481Z,89.55
2017-12-29T03:21:56.985Z,88.50
2017-12-29T03:24:24.510Z,89.37
2017-12-29T03:26:52.032Z,89.37
2017-12-29T03:29:19.543Z,89.02
2017-12-29T03:31:47.071Z,90.72
2017-12-29T03:34:14.585Z,91.99
2017-12-29T03:36:42.111Z,92.56
2017-12-29T03:39:09.633Z,92.72
2017-12-29T03:41:37.156Z,92.97
2017-12-29T03:44:04.677Z,92.88
2017-12-29T03:46:32.288Z,93.50
2017-12-29T03:48:59.841Z,93.78
2017-12-29T03:51:27.357Z,93.49
2017-12-29T03:53:54.882Z,93.02
2017-12-29T03:56:22.385Z,93.07
2017-12-29T03:58:49.912Z,92.72
2017-12-29T04:01:17.452Z,91.90
2017-12-29T04:03:44.993Z,90.28
2017-12-29T04:06:12.546Z,90.94
2017-12-29T04:08:40.071Z,90.75
2017-12-29T04:11:07.587Z,90.53
2017-12-29T04:13:35.110Z,91.65
2017-12-29T04:16:02.642Z,89.89
2017-12-29T04:18:30.167Z,89.32
2017-12-29T04:20:57.686Z,89.18
2017-12-29T04:23:25.260Z,89.57
2017-12-29T04:25:52.768Z,90.24
2017-12-29T04:28:20.286Z,91.09
2017-12-29T04:30:47.826Z,92.09
2017-12-29T04:33:15.358Z,92.18
2017-12-29T04:35:42.872Z,92.38
2017-12-29T04:38:10.392Z,92.30
2017-12-29T04:40:37.918Z,93.06
2017-12-29T04:43:05.441Z,93.38
2017-12-29T04:45:33.009Z,93.41
2017-12-29T04:48:00.516Z,92.95
2017-12-29T04:50:28.031Z,92.81
2017-12-29T04:52:55.547Z,92.57
2017-12-29T04:55:23.101Z,93.08
2017-12-29T04:57:50.608Z,93.23
2017-12-29T05:00:18.172Z,93.96
2017-12-29T05:02:45.707Z,93.34
2017-12-29T05:05:13.246Z,93.32
2017-12-29T05:07:40.782Z,91.82
2017-12-29T05:10:08.289Z,94.07
2017-12-29T05:12:35.872Z,95.59
2017-12-29T05:15:03.386Z,96.32
2017-12-29T05:17:30.899Z,95.37
2017-12-29T05:19:58.418Z,94.58
2017-12-29T05:22:25.937Z,94.92
2017-12-29T05:24:53.448Z,94.67
2017-12-29T05:27:20.982Z,95.41
2017-12-29T05:29:48.526Z,95.56
2017-12-29T05:32:16.043Z,95.12
2017-12-29T05:34:43.568Z,93.48
2017-12-29T05:37:11.079Z,93.47
2017-12-29T05:39:38.603Z,93.52
2017-12-29T05:42:06.188Z,91.76
2017-12-29T05:44:33.698Z,91.87
2017-12-29T05:47:01.227Z,92.78
2017-12-29T05:49:28.746Z,94.62
2017-12-29T05:51:56.288Z,95.21
2017-12-29T05:54:23.812Z,94.11
2017-12-29T05:56:51.355Z,92.58
2017-12-29T05:59:18.918Z,93.28
2017-12-29T06:01:46.411Z,93.42
2017-12-29T06:04:13.921Z,91.62
2017-12-29T06:06:41.433Z,92.11
2017-12-29T06:09:08.946Z,92.20
2017-12-29T06:11:36.486Z,91.82
2017-12-29T06:14:04.103Z,92.43
2017-12-29T06:16:31.611Z,93.43
2017-12-29T06:18:59.141Z,93.71
2017-12-29T06:21:26.653Z,93.89
2017-12-29T06:23:54.190Z,93.11
2017-12-29T06:26:21.687Z,92.37
2017-12-29T06:28:49.193Z,91.94
2017-12-29T06:31:16.703Z,92.10
2017-12-29T06:33:44.231Z,93.22
2017-12-29T06:36:11.766Z,92.85
2017-12-29T06:38:39.284Z,93.60
2017-12-29T06:41:06.833Z,93.90
2017-12-29T06:43:34.331Z,93.41
2017-12-29T06:46:02.057Z,92.83
2017-12-29T06:48:29.603Z,92.87
2017-12-29T06:50:57.118Z,92.52
2017-12-29T06:53:24.672Z,92.39
2017-12-29T06:55:52.176Z,91.80
2017-12-29T06:58:19.697Z,92.69
2017-12-29T07:00:47.319Z,92.69
2017-12-29T07:03:14.846Z,93.87
2017-12-29T07:05:42.382Z,93.31
2017-12-29T07:08:09.901Z,93.10
2017-12-29T07:10:37.418Z,93.46
2017-12-29T07:13:04.951Z,93.85
2017-12-29T07:15:32.462Z,92.98
2017-12-29T07:17:59.993Z,92.46
2017-12-29T07:20:27.513Z,92.51
2017-12-29T07:22:55.073Z,93.24
2017-12-29T07:25:22.628Z,93.88
2017-12-29T07:27:50.176Z,94.28
2017-12-29T07:30:17.696Z,92.99
2017-12-29T07:32:45.213Z,92.60
2017-12-29T07:35:12.731Z,93.00
2017-12-29T07:37:40.247Z,92.01
2017-12-29T07:40:07.791Z,91.87
2017-12-29T07:42:35.282Z,93.12
2017-12-29T07:45:02.811Z,92.04
2017-12-29T07:47:30.336Z,91.96
2017-12-29T07:49:57.897Z,92.63
2017-12-29T07:52:25.415Z,91.77
2017-12-29T07:54:52.938Z,90.98
2017-12-29T07:57:20.451Z,90.53
2017-12-29T07:59:48.008Z,90.61
2017-12-29T08:02:15.532Z,90.18
2017-12-29T08:04:43.183Z,90.04
2017-12-29T08:07:10.728Z,91.33
2017-12-29T08:09:38.243Z,91.36
2017-12-29T08:12:05.773Z,91.50
2017-12-29T08:14:33.282Z,90.73
2017-12-29T08:17:00.818Z,90.46
2017-12-29T08:19:28.338Z,88.00
2017-12-29T08:21:55.877Z,86.79
2017-12-29T08:24:23.403Z,87.04
2017-12-29T08:26:51.003Z,87.17
2017-12-29T08:29:18.538Z,85.09
2017-12-29T08:31:46.087Z,84.20
2017-12-29T08:34:13.621Z,81.53
2017-12-29T08:36:41.152Z,80.53
2017-12-29T08:39:08.676Z,81.17
2017-12-29T08:41:36.224Z,78.34
2017-12-29T08:44:03.789Z,77.15
2017-12-29T08:46:31.323Z,79.35
2017-12-29T08:48:58.880Z,76.75
2017-12-29T08:51:26.402Z,75.29
2017-12-29T08:53:54.028Z,75.44
2017-12-29T08:56:21.549Z,73.02
2017-12-29T08:58:49.063Z,72.43
2017-12-29T09:01:16.588Z,71.53
2017-12-29T09:03:44.089Z,68.90
2017-12-29T09:06:11.593Z,68.60
2017-12-29T09:08:39.131Z,65.29
2017-12-29T09:11:06.672Z,65.57
2017-12-29T09:13:34.213Z,62.15
2017-12-29T09:16:01.719Z,66.05
2017-12-29T09:18:29.227Z,66.13
2017-12-29T09:20:56.729Z,61.76
2017-12-29T09:23:24.248Z,58.90
2017-12-29T09:25:51.789Z,54.76
2017-12-29T09:28:19.318Z,51.21
2017-12-29T09:30:46.852Z,47.43
2017-12-29T09:33:14.382Z,44.91
2017-12-29T09:35:41.886Z,44.91
2017-12-29T09:38:09.429Z,41.70
2017-12-29T09:40:37.033Z,41.12
2017-12-29T09:43:04.581Z,44.58
2017-12-29T09:45:32.101Z,39.21
2017-12-29T09:47:59.638Z,36.32
2017-12-29T09:50:27.159Z,33.87
2017-12-29T09:52:54.684Z,41.03
2017-12-29T09:55:22.284Z,42.03
2017-12-29T09:57:49.803Z,44.22
2017-12-29T10:00:17.359Z,45.79
2017-12-29T10:02:44.888Z,46.59
2017-12-29T10:05:12.412Z,46.97
2017-12-29T10:07:40.028Z,50.06
2017-12-29T10:10:07.558Z,49.56
2017-12-29T10:12:35.066Z,43.54
2017-12-29T10:15:02.577Z,43.89
2017-12-29T10:17:30.110Z,37.88
2017-12-29T10:19:57.632Z,34.97
2017-12-29T10:22:25.158Z,36.27
2017-12-29T10:24:52.674Z,36.90
2017-12-29T10:27:20.188Z,39.68
2017-12-29T10:29:47.690Z,40.08
2017-12-29T10:32:15.270Z,39.57
2017-12-29T10:34:42.810Z,42.58
2017-12-29T10:37:10.353Z,40.41
2017-12-29T10:39:37.864Z,43.69
2017-12-29T10:42:05.373Z,41.62
2017-12-29T10:44:32.929Z,41.95
2017-12-29T10:47:00.462Z,38.61
2017-12-29T10:49:27.994Z,38.90
2017-12-29T10:51:55.507Z,43.18
2017-12-29T10:54:23.038Z,39.25
2017-12-29T10:56:50.557Z,36.48
2017-12-29T10:59:18.082Z,33.26
2017-12-29T11:01:45.662Z,38.71
2017-12-29T11:04:13.184Z,37.93
2017-12-29T11:06:40.744Z,37.23
2017-12-29T11:09:08.309Z,38.65
2017-12-29T11:11:35.825Z,38.60
2017-12-29T11:14:03.348Z,40.98
2017-12-29T11:16:30.888Z,47.51
2017-12-29T11:18:58.422Z,44.22
2017-12-29T11:21:26.982Z,43.83
2017-12-29T11:23:54.579Z,42.70
2017-12-29T11:26:22.087Z,44.94
2017-12-29T11:28:50.884Z,47.50
2017-12-29T11:31:18.410Z,43.22
2017-12-29T11:33:45.989Z,42.28
2017-12-29T11:36:13.504Z,41.32
2017-12-29T11:38:41.111Z,37.91
2017-12-29T12:02:22.339Z,34.71
2017-12-29T12:04:49.915Z,35.84
2017-12-29T12:07:17.452Z,39.33
2017-12-29T12:09:44.988Z,39.81
2017-12-29T12:12:12.558Z,39.43
2017-12-29T12:14:40.095Z,46.71
2017-12-29T12:17:07.630Z,48.01
2017-12-29T12:19:35.159Z,45.29
2017-12-29T12:22:02.674Z,45.37
2017-12-29T12:24:30.208Z,44.35
2017-12-29T12:26:57.770Z,45.43
2017-12-29T12:29:25.379Z,45.22
2017-12-29T12:31:52.899Z,48.40
2017-12-29T12:34:20.448Z,46.40
2017-12-29T12:36:47.990Z,46.35
2017-12-29T12:39:15.531Z,47.44
2017-12-29T12:41:43.060Z,45.98
2017-12-29T12:44:10.588Z,47.91
2017-12-29T12:46:38.123Z,45.65
2017-12-29T12:49:05.752Z,46.10
2017-12-29T12:51:33.274Z,47.29
2017-12-29T12:54:00.825Z,48.74
2017-12-29T12:56:28.365Z,49.50
2017-12-29T12:58:55.892Z,48.02
2017-12-29T13:01:23.440Z,49.10
2017-12-29T13:03:50.985Z,52.17
2017-12-29T13:06:18.549Z,51.54
2017-12-29T13:08:46.088Z,51.67
2017-12-29T13:11:13.633Z,52.72
2017-12-29T13:13:41.152Z,52.10
2017-12-29T13:16:08.770Z,53.28
2017-12-29T13:18:36.308Z,51.75
2017-12-29T13:21:03.848Z,53.24
2017-12-29T13:23:31.394Z,52.76
2017-12-29T13:25:58.930Z,51.88
2017-12-29T13:28:26.604Z,52.75
2017-12-29T13:30:54.208Z,53.77
2017-12-29T13:33:21.894Z,54.16
2017-12-29T13:35:49.448Z,53.57
2017-12-29T13:38:16.986Z,53.00
2017-12-29T13:40:44.516Z,53.11
2017-12-29T13:43:12.071Z,52.83
2017-12-29T13:45:39.630Z,52.43
2017-12-29T13:48:07.179Z,54.05
2017-12-29T13:50:34.715Z,54.89
2017-12-29T13:53:02.220Z,55.12
2017-12-29T13:55:29.755Z,55.62
2017-12-29T13:57:57.334Z,55.93
2017-12-29T14:00:24.871Z,57.11
2017-12-29T14:02:52.416Z,59.35
2017-12-29T14:05:19.939Z,58.85
2017-12-29T14:07:47.500Z,58.68
2017-12-29T14:10:15.046Z,58.61
2017-12-29T14:12:42.569Z,58.48
2017-12-29T14:15:10.111Z,59.60
2017-12-29T14:17:37.647Z,60.60
2017-12-29T14:20:05.193Z,60.39
2017-12-29T14:22:32.734Z,60.62
2017-12-29T14:25:00.364Z,60.31
2017-12-29T14:27:27.884Z,60.93
2017-12-29T14:29:55.502Z,62.30
2017-12-29T14:32:23.055Z,62.82
2017-12-29T14:34:50.620Z,62.56
2017-12-29T14:37:18.191Z,62.22
2017-12-29T14:39:45.719Z,62.91
2017-12-29T14:42:13.245Z,62.55
2017-12-29T14:44:40.773Z,62.41
2017-12-29T14:47:08.460Z,62.44
2017-12-29T14:49:36.115Z,63.72
2017-12-29T14:52:03.650Z,62.93
2017-12-29T14:54:31.183Z,63.08
2017-12-29T14:56:58.736Z,62.14
2017-12-29T14:59:26.278Z,63.22
2017-12-29T15:01:53.834Z,63.31
2017-12-29T15:04:21.378Z,63.25
2017-12-29T15:06:48.904Z,64.15
2017-12-29T15:09:16.468Z,63.69
2017-12-29T15:11:44.009Z,64.13
2017-12-29T15:14:11.570Z,63.40
2017-12-29T15:16:39.133Z,63.33
2017-12-29T15:19:06.659Z,63.36
2017-12-29T15:21:34.314Z,64.56
2017-12-29T15:24:01.870Z,63.61
2017-12-29T15:26:29.567Z,63.75
2017-12-29T15:28:57.095Z,63.05
2017-12-29T15:31:24.613Z,63.61
2017-12-29T15:33:52.155Z,64.73
2017-12-29T15:36:19.689Z,63.76
2017-12-29T15:38:47.226Z,64.08
2017-12-29T15:41:14.780Z,63.94
2017-12-29T15:43:42.360Z,62.60
2017-12-29T15:46:09.905Z,65.52
2017-12-29T15:48:37.445Z,63.99
2017-12-29T15:51:05.010Z,63.35
2017-12-29T15:53:32.545Z,63.04
2017-12-29T15:56:00.079Z,64.03
2017-12-29T15:58:27.620Z,64.47
2017-12-29T16:00:58.028Z,63.38
2017-12-29T16:03:25.575Z,63.21
2017-12-29T16:05:53.100Z,63.18
2017-12-29T16:08:20.632Z,61.59
2017-12-29T16:10:48.209Z,61.14
2017-12-29T16:13:15.755Z,62.17
2017-12-29T16:15:43.300Z,61.90
2017-12-29T16:18:10.863Z,61.51
2017-12-29T16:20:38.451Z,61.79
2017-12-29T16:23:05.964Z,62.32
2017-12-29T16:25:33.529Z,62.65
2017-12-29T16:28:01.085Z,62.41
2017-12-29T16:30:28.611Z,62.69
2017-12-29T16:32:56.149Z,63.64
2017-12-29T16:35:23.728Z,62.46
2017-12-29T16:37:51.245Z,63.24
2017-12-29T16:40:18.811Z,62.91
2017-12-29T16:42:46.375Z,62.99
2017-12-29T16:45:13.920Z,65.29
2017-12-29T16:47:41.461Z,65.17
2017-12-29T16:50:09.000Z,64.86
2017-12-29T16:52:36.551Z,65.39
2017-12-29T16:55:04.088Z,64.29
2017-12-29T16:57:31.618Z,63.86
2017-12-29T16:59:59.191Z,63.42
2017-12-29T17:02:26.758Z,62.64
2017-12-29T17:04:54.295Z,63.71
2017-12-29T17:07:21.819Z,64.28
2017-12-29T17:09:49.347Z,65.15
2017-12-29T17:12:16.904Z,66.31
2017-12-29T17:14:44.425Z,68.87
2017-12-29T17:17:11.966Z,70.94
2017-12-29T17:19:39.520Z,71.39
2017-12-29T17:22:07.106Z,72.57
2017-12-29T17:24:34.655Z,72.56
2017-12-29T17:27:02.180Z,73.27
2017-12-29T17:29:29.736Z,73.49
2017-12-29T17:31:57.259Z,72.93
2017-12-29T17:34:24.822Z,73.41
2017-12-29T17:36:52.354Z,74.51
2017-12-29T17:39:19.907Z,73.99
2017-12-29T17:41:47.445Z,74.69
2017-12-29T17:44:15.001Z,74.14
2017-12-29T17:46:42.539Z,74.91
2017-12-29T17:49:10.054Z,74.03
2017-12-29T17:51:37.561Z,74.56
2017-12-29T17:54:05.115Z,74.22
2017-12-29T17:56:32.635Z,73.05
2017-12-29T17:59:00.184Z,73.24
2017-12-29T18:01:27.722Z,72.38
2017-12-29T18:03:55.265Z,73.59
2017-12-29T18:06:22.799Z,76.17
2017-12-29T18:08:50.336Z,75.76
2017-12-29T18:11:17.850Z,79.57
2017-12-29T18:13:45.390Z,84.94
2017-12-29T18:16:12.950Z,87.01
2017-12-29T18:18:40.480Z,87.96
2017-12-29T18:21:08.040Z,87.70
2017-12-29T18:23:35.581Z,88.30
2017-12-29T18:26:03.131Z,88.47
2017-12-29T18:28:30.694Z,88.97
2017-12-29T18:30:58.204Z,89.90
2017-12-29T18:33:25.853Z,89.54
2017-12-29T18:35:53.979Z,89.01
2017-12-29T18:38:21.566Z,89.67
2017-12-29T18:40:49.101Z,89.47
2017-12-29T18:43:18.675Z,89.23
2017-12-29T18:45:46.237Z,90.68
2017-12-29T18:48:13.782Z,90.88
2017-12-29T18:50:41.331Z,91.23
2017-12-29T18:53:08.896Z,93.47
2017-12-29T18:55:36.434Z,91.96
2017-12-29T18:58:03.971Z,92.35
2017-12-29T19:00:31.536Z,92.84
2017-12-29T19:02:59.225Z,92.80
2017-12-29T19:05:26.754Z,92.46
2017-12-29T19:07:54.318Z,93.67
2017-12-29T19:10:21.891Z,93.76
2017-12-29T19:12:49.505Z,93.96
2017-12-29T19:15:17.395Z,93.98
2017-12-29T19:17:44.941Z,95.76
2017-12-29T19:20:13.090Z,96.57
2017-12-29T19:22:40.698Z,95.98
2017-12-29T19:25:08.239Z,95.73
2017-12-29T19:27:35.846Z,96.91
2017-12-29T19:30:03.491Z,97.09
2017-12-29T19:32:31.080Z,97.22
2017-12-29T19:34:58.712Z,96.71
2017-12-29T19:37:26.280Z,96.67
2017-12-29T19:39:53.819Z,96.38
2017-12-29T19:42:21.470Z,97.43
2017-12-29T19:44:49.074Z,97.98
2017-12-29T19:47:16.636Z,98.08
2017-12-29T19:49:44.339Z,97.65
2017-12-29T19:52:11.986Z,97.43
2017-12-29T19:54:39.512Z,97.43
2017-12-29T19:57:07.126Z,97.73
2017-12-29T19:59:34.775Z,97.77
2017-12-29T20:02:02.615Z,97.42
2017-12-29T20:04:30.231Z,97.67
2017-12-29T20:06:57.766Z,97.84
2017-12-29T20:09:25.451Z,98.17
2017-12-29T20:11:53.163Z,98.42
2017-12-29T20:14:20.796Z,98.69
2017-12-29T20:16:48.402Z,98.83
2017-12-29T20:19:16.027Z,98.23
2017-12-29T20:21:43.631Z,97.41
2017-12-29T20:24:11.859Z,96.99
2017-12-29T20:26:39.831Z,97.24
2017-12-29T20:29:07.607Z,96.59
2017-12-29T20:31:35.270Z,96.27
2017-12-29T20:34:02.896Z,95.68
2017-12-29T20:36:31.318Z,95.12
2017-12-29T20:38:58.957Z,95.45
2017-12-29T20:41:26.681Z,96.16
2017-12-29T20:43:55.036Z,96.83
2017-12-29T20:46:23.273Z,96.11
2017-12-29T20:48:51.161Z,94.97
2017-12-29T20:51:19.240Z,94.98
2017-12-29T20:53:46.926Z,95.30
2017-12-29T20:56:16.010Z,94.76
2017-12-29T20:58:44.699Z,94.30
2017-12-29T21:01:12.972Z,94.69
2017-12-29T21:03:40.990Z,94.89
2017-12-29T21:06:09.165Z,95.03
2017-12-29T21:08:36.870Z,94.79
2017-12-29T21:11:04.477Z,94.96
2017-12-29T21:13:32.261Z,94.78
2017-12-29T21:15:59.934Z,94.54
2017-12-29T21:18:27.565Z,94.40
2017-12-29T21:20:55.301Z,94.26
2017-12-29T21:23:23.296Z,93.87
2017-12-29T21:25:51.719Z,93.60
2017-12-29T21:28:19.972Z,93.63
2017-12-29T21:30:47.577Z,93.43
2017-12-29T21:33:15.296Z,93.19
2017-12-29T21:35:43.202Z,93.66
2017-12-29T21:38:10.980Z,93.74
2017-12-29T21:40:38.571Z,93.82
2017-12-29T21:43:06.187Z,93.69
2017-12-29T21:45:33.731Z,94.38
2017-12-29T21:48:01.294Z,94.41
2017-12-29T21:50:28.937Z,94.15
2017-12-29T21:52:56.487Z,94.04
2017-12-29T21:55:24.031Z,93.86
2017-12-29T21:57:51.601Z,93.99
2017-12-29T22:00:19.151Z,94.18
2017-12-29T22:02:46.684Z,94.28
2017-12-29T22:05:14.230Z,94.29
2017-12-29T22:07:41.771Z,94.60
2017-12-29T22:10:09.306Z,94.51
2017-12-29T22:12:36.865Z,94.85
2017-12-29T22:15:04.431Z,95.02
2017-12-29T22:17:31.954Z,95.05
2017-12-29T22:19:59.516Z,95.32
2017-12-29T22:22:27.095Z,95.23
2017-12-29T22:24:54.668Z,95.10
2017-12-29T22:27:22.207Z,95.04
2017-12-29T22:29:49.790Z,94.54
2017-12-29T22:32:17.372Z,94.76
2017-12-29T22:34:44.948Z,94.71
2017-12-29T22:37:12.526Z,94.53
2017-12-29T22:39:40.062Z,94.65
2017-12-29T22:42:07.603Z,94.51
2017-12-29T22:44:35.181Z,94.55
2017-12-29T22:47:02.722Z,94.85
2017-12-29T22:49:30.277Z,94.62
2017-12-29T22:51:57.845Z,94.23
2017-12-29T22:54:25.414Z,94.82
2017-12-29T22:56:52.968Z,95.40
2017-12-29T22:59:20.507Z,94.99
2017-12-29T23:01:48.067Z,95.10
2017-12-29T23:04:15.634Z,94.96
2017-12-29T23:06:43.186Z,94.56
2017-12-29T23:09:10.769Z,94.04
2017-12-29T23:11:38.292Z,93.72
2017-12-29T23:14:05.812Z,94.26
2017-12-29T23:16:33.376Z,95.07
2017-12-29T23:19:00.964Z,95.20
2017-12-29T23:21:28.511Z,95.30
2017-12-29T23:23:56.302Z,94.40
2017-12-29T23:26:23.840Z,94.43
2017-12-29T23:28:51.415Z,94.84
2017-12-29T23:31:18.966Z,94.97
2017-12-29T23:33:46.510Z,94.77
2017-12-29T23:36:14.056Z,94.89
2017-12-29T23:38:41.611Z,94.31
2017-12-29T23:41:09.150Z,94.86
2017-12-29T23:43:36.762Z,94.65
2017-12-29T23:46:04.275Z,93.90
2017-12-29T23:48:31.868Z,94.55
2017-12-29T23:50:59.405Z,95.42
2017-12-29T23:53:26.945Z,95.04
2017-12-29T23:55:54.470Z,94.44
2017-12-29T23:58:22.008Z,95.02
